Buoy 41580

sailwx.info

Track history (hours):
 
Tides and Currents Weather Stations Pressure Air Temp Water Temp Dewpoint Dewpoint Depression Visibility Wind Speed Wind Dir Waves Ship Positions

Drifting buoy 41580

Last reported at 2015-May-24 12:00 UTC. Time now 2015-May-24 15:18 UTC.
Position N 16°54' W 045°39'.

Barometer 1018.7 mb
Water temperature 25.1 ° C

Date/timePositionNaut miles runAvg speedWind from/ knotsBaromVisibWave heightAir tempDewpointWater temp
2015-May-24 12:00N 16°54' W 045°39'0 0.5 1018.7 25.1
2015-May-24 11:00N 16°55' W 045°39'1 0.2 1018.8 25.1
2015-May-24 08:00N 16°55' W 045°39'1 0.4 1017.9 25.0
2015-May-24 06:00N 16°54' W 045°39'1 0.5 1017.6 25.1
2015-May-24 04:00N 16°53' W 045°40'0 0.0 1018.7 25.1
2015-May-24 01:00N 16°53' W 045°40'1 0.2 1019.8 25.1
2015-May-23 21:00N 16°53' W 045°40'4 0.3 1018.7 25.1
2015-May-23 08:00N 16°50' W 045°37'0 0.2 1019.8 25.1
2015-May-23 07:00N 16°49' W 045°37'1 0.6 1019.7 25.1
2015-May-23 06:00N 16°49' W 045°37'0 0.0 1019.6 25.1
2015-May-23 05:00N 16°49' W 045°37'1 0.1 1020.1 25.1
2015-May-23 01:00N 16°49' W 045°36'1 1.2 1022.1 25.1
2015-May-23 00:00N 16°50' W 045°35'0 0.5 1021.7 25.1
2015-May-22 23:00N 16°49' W 045°35'0 0.1 1021.5 25.1
2015-May-22 20:00N 16°49' W 045°36'1 0.1 1020.5 25.2
2015-May-22 09:00N 16°48' W 045°36'1 0.4 1020.1 25.1
2015-May-22 06:00N 16°47' W 045°37'0 0.0 1019.6 25.1
2015-May-22 05:00N 16°47' W 045°37'1 0.3 1019.9 25.1
2015-May-22 00:00N 16°46' W 045°36'3 0.4 1020.4 25.1
2015-May-21 16:00N 16°43' W 045°35'0 0.0 1019.1 25.2
2015-May-21 15:00N 16°43' W 045°35'1 0.3 1019.3 25.2
2015-May-21 13:00N 16°43' W 045°34'1 0.1 1019.5 25.1
2015-May-20 23:00N 16°43' W 045°33'2 0.3 1017.9 25.1
2015-May-20 17:00N 16°42' W 045°34'2 0.2 1016.6 25.2
2015-May-20 04:00N 16°39' W 045°34'3 0.4 1017.3 25.1
2015-May-19 21:00N 16°37' W 045°32'0 0.0 1016.7 25.1
2015-May-19 18:00N 16°37' W 045°32'2 0.3 1016.6 25.2
2015-May-19 12:00N 16°36' W 045°31'1 0.2 1018.5 25.0
2015-May-19 09:00N 16°35' W 045°30'2 0.4 1016.8 25.0
2015-May-19 05:00N 16°34' W 045°29'0 0.0 1017.0 25.0
2015-May-19 04:00N 16°34' W 045°29'0 0.0 1017.5 25.0
2015-May-19 01:00N 16°34' W 045°29'0 0.2 1019.0 25.0
2015-May-19 00:00N 16°34' W 045°29'0 0.2 1018.2 25.0
2015-May-18 23:00N 16°34' W 045°29'0 0.2 1017.9 25.0
2015-May-18 21:00N 16°34' W 045°29'0 0.0 1017.2 25.1
2015-May-18 20:00N 16°34' W 045°29'1 0.4 1016.9 25.1
2015-May-18 18:00N 16°33' W 045°29'0 0.0 1017.3 25.1
2015-May-18 17:00N 16°33' W 045°29'2 0.4 1017.4 25.1
2015-May-18 12:00N 16°31' W 045°28'0 0.0 1018.4 25.0
2015-May-18 11:00N 16°31' W 045°28'1 0.3 1018.1 25.0
2015-May-18 09:00N 16°31' W 045°27'1 0.7 1017.2 25.0
2015-May-18 08:00N 16°30' W 045°27'0 0.0 1017.0 24.9
2015-May-18 07:00N 16°30' W 045°27'0 0.0 1017.0 25.0
2015-May-18 05:00N 16°30' W 045°27'0 0.0 1017.8 25.0
2015-May-18 04:00N 16°30' W 045°27'0 0.1 1018.6 25.0
2015-May-18 00:00N 16°30' W 045°26'1 0.7 1018.9 25.0
2015-May-17 23:00N 16°30' W 045°26'0 0.0 1018.9 25.0
2015-May-17 21:00N 16°30' W 045°26'2 0.2 1017.9 25.1
2015-May-17 10:00N 16°29' W 045°24'0 0.1 1018.6 25.0
2015-May-17 08:00N 16°29' W 045°23'3 0.2 1017.8 25.0
2015-May-16 18:00N 16°29' W 045°21'0 0.0 1017.7 25.0
2015-May-16 17:00N 16°29' W 045°21'0 0.1 1018.1 25.0
2015-May-16 13:00N 16°28' W 045°21'1 0.1 1019.3 25.0
2015-May-16 04:00N 16°27' W 045°20'2 0.2 1017.5 24.9
2015-May-15 21:00N 16°27' W 045°18'3 0.3 1017.1 25.0
2015-May-15 12:00N 16°26' W 045°16'0 0.5 1018.4 24.9
2015-May-15 11:00N 16°26' W 045°15'1 0.4 1018.4 24.9
2015-May-15 08:00N 16°26' W 045°14'0 0.0 1017.2 24.8
2015-May-15 07:00N 16°26' W 045°14'1 0.5 1016.8 24.8
2015-May-15 05:00N 16°26' W 045°13'1 1.3 1017.2 24.9
2015-May-15 04:00N 16°25' W 045°12'7 0.4 1018.0 24.9
2015-May-14 12:00N 16°29' W 045°05'   1019.7 24.9
Track history (hours):
 
Tides and Currents Weather Stations Pressure Air Temp Water Temp Dewpoint Dewpoint Depression Visibility Wind Speed Wind Dir Waves Ship Positions

Drifting buoy 41580

Last reported at 2015-May-24 12:00 UTC. Time now 2015-May-24 15:18 UTC.
Position N 16°54' W 045°39'.

Barometer 1018.7 mb
Water temperature 25.1 ° C

Date/timePositionNaut miles runAvg speedWind from/ knotsBaromVisibWave heightAir tempDewpointWater temp
2015-May-24 12:00N 16°54' W 045°39'0 0.5 1018.7 25.1
2015-May-24 11:00N 16°55' W 045°39'1 0.2 1018.8 25.1
2015-May-24 08:00N 16°55' W 045°39'1 0.4 1017.9 25.0
2015-May-24 06:00N 16°54' W 045°39'1 0.5 1017.6 25.1
2015-May-24 04:00N 16°53' W 045°40'0 0.0 1018.7 25.1
2015-May-24 01:00N 16°53' W 045°40'1 0.2 1019.8 25.1
2015-May-23 21:00N 16°53' W 045°40'4 0.3 1018.7 25.1
2015-May-23 08:00N 16°50' W 045°37'0 0.2 1019.8 25.1
2015-May-23 07:00N 16°49' W 045°37'1 0.6 1019.7 25.1
2015-May-23 06:00N 16°49' W 045°37'0 0.0 1019.6 25.1
2015-May-23 05:00N 16°49' W 045°37'1 0.1 1020.1 25.1
2015-May-23 01:00N 16°49' W 045°36'1 1.2 1022.1 25.1
2015-May-23 00:00N 16°50' W 045°35'0 0.5 1021.7 25.1
2015-May-22 23:00N 16°49' W 045°35'0 0.1 1021.5 25.1
2015-May-22 20:00N 16°49' W 045°36'1 0.1 1020.5 25.2
2015-May-22 09:00N 16°48' W 045°36'1 0.4 1020.1 25.1
2015-May-22 06:00N 16°47' W 045°37'0 0.0 1019.6 25.1
2015-May-22 05:00N 16°47' W 045°37'1 0.3 1019.9 25.1
2015-May-22 00:00N 16°46' W 045°36'3 0.4 1020.4 25.1
2015-May-21 16:00N 16°43' W 045°35'0 0.0 1019.1 25.2
2015-May-21 15:00N 16°43' W 045°35'1 0.3 1019.3 25.2
2015-May-21 13:00N 16°43' W 045°34'1 0.1 1019.5 25.1
2015-May-20 23:00N 16°43' W 045°33'2 0.3 1017.9 25.1
2015-May-20 17:00N 16°42' W 045°34'2 0.2 1016.6 25.2
2015-May-20 04:00N 16°39' W 045°34'3 0.4 1017.3 25.1
2015-May-19 21:00N 16°37' W 045°32'0 0.0 1016.7 25.1
2015-May-19 18:00N 16°37' W 045°32'2 0.3 1016.6 25.2
2015-May-19 12:00N 16°36' W 045°31'1 0.2 1018.5 25.0
2015-May-19 09:00N 16°35' W 045°30'2 0.4 1016.8 25.0
2015-May-19 05:00N 16°34' W 045°29'0 0.0 1017.0 25.0
2015-May-19 04:00N 16°34' W 045°29'0 0.0 1017.5 25.0
2015-May-19 01:00N 16°34' W 045°29'0 0.2 1019.0 25.0
2015-May-19 00:00N 16°34' W 045°29'0 0.2 1018.2 25.0
2015-May-18 23:00N 16°34' W 045°29'0 0.2 1017.9 25.0
2015-May-18 21:00N 16°34' W 045°29'0 0.0 1017.2 25.1
2015-May-18 20:00N 16°34' W 045°29'1 0.4 1016.9 25.1
2015-May-18 18:00N 16°33' W 045°29'0 0.0 1017.3 25.1
2015-May-18 17:00N 16°33' W 045°29'2 0.4 1017.4 25.1
2015-May-18 12:00N 16°31' W 045°28'0 0.0 1018.4 25.0
2015-May-18 11:00N 16°31' W 045°28'1 0.3 1018.1 25.0
2015-May-18 09:00N 16°31' W 045°27'1 0.7 1017.2 25.0
2015-May-18 08:00N 16°30' W 045°27'0 0.0 1017.0 24.9
2015-May-18 07:00N 16°30' W 045°27'0 0.0 1017.0 25.0
2015-May-18 05:00N 16°30' W 045°27'0 0.0 1017.8 25.0
2015-May-18 04:00N 16°30' W 045°27'0 0.1 1018.6 25.0
2015-May-18 00:00N 16°30' W 045°26'1 0.7 1018.9 25.0
2015-May-17 23:00N 16°30' W 045°26'0 0.0 1018.9 25.0
2015-May-17 21:00N 16°30' W 045°26'2 0.2 1017.9 25.1
2015-May-17 10:00N 16°29' W 045°24'0 0.1 1018.6 25.0
2015-May-17 08:00N 16°29' W 045°23'3 0.2 1017.8 25.0
2015-May-16 18:00N 16°29' W 045°21'0 0.0 1017.7 25.0
2015-May-16 17:00N 16°29' W 045°21'0 0.1 1018.1 25.0
2015-May-16 13:00N 16°28' W 045°21'1 0.1 1019.3 25.0
2015-May-16 04:00N 16°27' W 045°20'2 0.2 1017.5 24.9
2015-May-15 21:00N 16°27' W 045°18'3 0.3 1017.1 25.0
2015-May-15 12:00N 16°26' W 045°16'0 0.5 1018.4 24.9
2015-May-15 11:00N 16°26' W 045°15'1 0.4 1018.4 24.9
2015-May-15 08:00N 16°26' W 045°14'0 0.0 1017.2 24.8
2015-May-15 07:00N 16°26' W 045°14'1 0.5 1016.8 24.8
2015-May-15 05:00N 16°26' W 045°13'1 1.3 1017.2 24.9
2015-May-15 04:00N 16°25' W 045°12'7 0.4 1018.0 24.9
2015-May-14 12:00N 16°29' W 045°05'   1019.7 24.9

Dump ship's entire track history